Time;durP1;ratioP1;P1;durP2;ratioP2;P2;SDS_P1;SDS_P2;PMS_P1;PMS_P2;Temp;Humidity;BMP_temperature;BMP_pressure;BME280_temperature;BME280_humidity;BME280_pressure;Samples;Min_cycle;Max_cycle;Signal;HPM_P1;HPM_P2
2021/11/18 00:02:08;;;;;;;49.70;30.20;;;;;;;-3.25;78.68;98024.19;108078;1272;68631;-69
2021/11/18 00:04:40;;;;;;;49.00;31.80;;;;;;;-3.28;78.13;98027.09;108032;1272;69473;-69
2021/11/18 00:07:09;;;;;;;48.40;29.80;;;;;;;-3.29;78.76;98030.17;108138;1272;58906;-70
2021/11/18 00:09:39;;;;;;;82.20;46.00;;;;;;;-3.30;78.65;98029.52;108135;1272;58925;-69
2021/11/18 00:12:09;;;;;;;79.00;44.30;;;;;;;-3.33;77.62;98032.94;108143;1274;70028;-70
2021/11/18 00:14:39;;;;;;;80.30;43.30;;;;;;;-3.37;78.09;98036.88;108134;1272;67931;-70
2021/11/18 00:17:08;;;;;;;61.80;34.80;;;;;;;-3.39;78.23;98031.61;108032;1275;68733;-70
2021/11/18 00:19:37;;;;;;;58.30;36.40;;;;;;;-3.40;78.80;98027.54;108118;1272;58910;-71
2021/11/18 00:22:07;;;;;;;36.90;21.60;;;;;;;-3.41;79.18;98027.89;108061;1275;58967;-70
2021/11/18 00:24:36;;;;;;;72.90;39.30;;;;;;;-3.41;77.91;98032.33;108062;1275;69929;-70
2021/11/18 00:27:07;;;;;;;83.80;43.50;;;;;;;-3.44;77.92;98033.70;108055;1275;68001;-70
2021/11/18 00:29:36;;;;;;;50.10;27.60;;;;;;;-3.51;77.76;98032.90;108056;1273;68974;-70
2021/11/18 00:32:08;;;;;;;49.10;26.70;;;;;;;-3.57;77.74;98038.90;108103;1274;59430;-70
2021/11/18 00:34:38;;;;;;;57.20;33.60;;;;;;;-3.59;77.50;98038.92;108079;1272;58906;-70
2021/11/18 00:37:09;;;;;;;61.80;35.90;;;;;;;-3.63;77.58;98041.16;107973;1275;70725;-71
2021/11/18 00:39:39;;;;;;;78.50;43.60;;;;;;;-3.67;77.88;98043.56;107910;1273;67898;-70
2021/11/18 00:42:09;;;;;;;61.90;36.80;;;;;;;-3.69;78.08;98043.58;108030;1276;69687;-70
2021/11/18 00:44:38;;;;;;;97.60;46.40;;;;;;;-3.70;78.39;98043.58;107969;1276;58982;-70
2021/11/18 00:47:10;;;;;;;60.90;37.60;;;;;;;-3.73;78.37;98042.75;108009;1272;58836;-70
2021/11/18 00:49:40;;;;;;;53.70;33.80;;;;;;;-3.75;77.96;98040.89;108049;1272;70002;-70
2021/11/18 00:52:10;;;;;;;85.30;45.50;;;;;;;-3.76;78.49;98046.02;108057;1272;67941;-69
2021/11/18 00:54:40;;;;;;;76.90;41.00;;;;;;;-3.77;78.69;98051.30;108029;1274;69447;-69
2021/11/18 00:57:10;;;;;;;;;;;;;;;-3.78;78.80;98052.34;107999;1275;58909;-69
2021/11/18 00:59:40;;;;;;;35.30;20.50;;;;;;;-3.80;78.29;98051.47;108026;1272;59087;-69
2021/11/18 01:02:09;;;;;;;44.30;27.50;;;;;;;-3.78;77.40;98050.62;108049;1272;70895;-71
2021/11/18 01:04:42;;;;;;;46.50;27.20;;;;;;;-3.75;77.91;98049.23;108073;1272;67814;-70
2021/11/18 01:07:11;;;;;;;84.50;43.30;;;;;;;-3.76;79.12;98050.77;108082;1273;68756;-69
2021/11/18 01:09:41;;;;;;;81.70;43.60;;;;;;;-3.78;79.35;98053.02;107871;1276;58967;-69
2021/11/18 01:12:12;;;;;;;40.90;24.70;;;;;;;-3.82;78.43;98055.92;108063;1273;58964;-70
2021/11/18 01:14:42;;;;;;;40.30;27.10;;;;;;;-3.87;78.35;98052.70;108038;1276;70810;-69
2021/11/18 01:17:12;;;;;;;34.70;20.40;;;;;;;-3.91;78.07;98053.42;107998;1275;68007;-69
2021/11/18 01:19:44;;;;;;;70.00;34.40;;;;;;;-3.96;78.06;98056.84;107964;1272;68613;-69
2021/11/18 01:22:14;;;;;;;;;;;;;;;-4.01;78.13;98054.48;108074;1272;58951;-70
2021/11/18 01:24:46;;;;;;;75.00;39.80;;;;;;;-4.06;77.84;98055.87;108098;1272;58897;-70
2021/11/18 01:27:21;;;;;;;61.40;33.50;;;;;;;-4.11;77.87;98056.23;108051;1272;69789;-70
2021/11/18 01:29:53;;;;;;;46.80;27.80;;;;;;;-4.13;78.55;98059.48;107955;1276;67847;-70
2021/11/18 01:32:22;;;;;;;35.00;23.20;;;;;;;-4.15;78.73;98058.98;107989;1276;68642;-70
2021/11/18 01:34:54;;;;;;;47.00;28.80;;;;;;;-4.16;78.79;98057.77;108027;1272;58912;-70
2021/11/18 01:37:24;;;;;;;47.80;27.60;;;;;;;-4.15;77.96;98058.96;108123;1272;58963;-70
2021/11/18 01:39:54;;;;;;;65.20;32.50;;;;;;;-4.12;78.72;98061.34;107943;1276;69734;-70
2021/11/18 01:42:25;;;;;;;60.00;31.70;;;;;;;-4.11;79.56;98057.77;108074;1272;68655;-70
2021/11/18 01:44:55;;;;;;;56.90;31.00;;;;;;;-4.10;79.41;98065.09;107905;1276;69344;-70
2021/11/18 01:47:27;;;;;;;60.70;34.00;;;;;;;-4.11;79.46;98067.30;108090;1272;58971;-70
2021/11/18 01:49:57;;;;;;;45.50;25.90;;;;;;;-4.14;79.83;98069.70;107952;1276;58903;-70
2021/11/18 01:52:29;;;;;;;49.60;28.60;;;;;;;-4.14;79.43;98069.70;107995;1275;70772;-69
2021/11/18 01:55:00;;;;;;;66.90;36.80;;;;;;;-4.16;79.36;98069.36;107986;1276;67577;-70
2021/11/18 01:57:34;;;;;;;58.30;33.30;;;;;;;-4.18;79.57;98069.54;107985;1276;69426;-71
2021/11/18 02:00:33;;;;;;;49.80;31.30;;;;;;;-4.20;80.06;98068.85;107915;1272;58970;-67
2021/11/18 02:03:04;;;;;;;68.30;37.60;;;;;;;-4.21;80.15;98069.02;107991;1275;58917;-70
2021/11/18 02:06:13;;;;;;;37.20;20.60;;;;;;;-4.20;80.03;98067.84;107955;1272;70671;-68
2021/11/18 02:08:43;;;;;;;18.60;12.20;;;;;;;-4.18;79.44;98067.98;108127;1272;67951;-70
2021/11/18 02:11:39;;;;;;;30.00;18.00;;;;;;;-4.15;79.03;98066.80;108011;1273;69415;-69
2021/11/18 02:14:16;;;;;;;60.80;33.90;;;;;;;-4.13;79.28;98070.02;108118;1272;58957;-69
2021/11/18 02:16:47;;;;;;;39.60;26.10;;;;;;;-4.12;79.39;98071.04;108031;1272;58872;-69
2021/11/18 02:19:19;;;;;;;40.00;25.00;;;;;;;-4.11;79.64;98070.54;108026;1272;68911;-70
2021/11/18 02:21:51;;;;;;;33.80;22.30;;;;;;;-4.09;79.93;98069.84;108078;1272;68151;-69
2021/11/18 02:24:30;;;;;;;43.50;26.70;;;;;;;-4.05;80.04;98070.86;108105;1272;67615;-70
2021/11/18 02:27:03;;;;;;;44.00;24.00;;;;;;;-4.03;79.95;98067.42;107994;1272;59008;-70
2021/11/18 02:29:32;;;;;;;27.50;13.60;;;;;;;-4.01;79.97;98065.55;108080;1272;58922;-70
2021/11/18 02:32:08;;;;;;;19.70;12.30;;;;;;;-4.00;79.76;98067.60;108004;1275;69930;-70
2021/11/18 02:35:07;;;;;;;29.80;18.10;;;;;;;-4.00;79.56;98065.38;108015;1269;68065;-70
2021/11/18 02:37:36;;;;;;;21.00;12.90;;;;;;;-4.00;79.48;98066.23;107985;1274;69270;-70
2021/11/18 02:40:09;;;;;;;50.20;31.00;;;;;;;-3.99;79.96;98063.84;108074;1274;58958;-70
2021/11/18 02:42:40;;;;;;;40.20;26.60;;;;;;;-3.99;80.27;98061.96;107834;1276;58980;-68
2021/11/18 02:45:14;;;;;;;37.50;25.00;;;;;;;-3.98;79.76;98066.55;108086;1274;70736;-67
2021/11/18 02:47:47;;;;;;;75.10;38.90;;;;;;;-3.97;79.67;98066.73;108016;1275;67878;-70
2021/11/18 02:50:21;;;;;;;75.70;39.30;;;;;;;-3.96;79.63;98067.23;108000;1276;69452;-67
2021/11/18 02:52:53;;;;;;;42.40;22.80;;;;;;;-3.96;80.15;98064.00;107950;1275;58995;-71
2021/11/18 02:55:29;;;;;;;55.60;27.80;;;;;;;-3.95;79.15;98064.16;108137;1274;58917;-68
2021/11/18 02:58:00;;;;;;;32.90;17.60;;;;;;;-3.95;79.13;98064.49;108037;1275;70412;-68
2021/11/18 03:00:31;;;;;;;;;;;;;;;-3.96;79.43;98067.40;107989;1275;67710;-68
2021/11/18 03:03:03;;;;;;;35.80;20.40;;;;;;;-3.97;79.86;98072.85;108056;1272;69438;-68
2021/11/18 03:05:38;;;;;;;39.50;24.20;;;;;;;-3.99;79.60;98075.41;107987;1272;58839;-70
2021/11/18 03:08:08;;;;;;;52.80;30.50;;;;;;;-4.00;79.55;98076.27;107928;1273;58895;-70
2021/11/18 03:10:38;;;;;;;39.90;24.40;;;;;;;-4.02;79.25;98077.98;108059;1273;69926;-68
2021/11/18 03:13:10;;;;;;;46.30;29.00;;;;;;;-4.04;79.19;98077.30;108093;1274;67850;-67
2021/11/18 03:15:40;;;;;;;39.80;24.60;;;;;;;-4.04;79.20;98078.68;108048;1273;69342;-70
2021/11/18 03:18:11;;;;;;;29.60;19.00;;;;;;;-4.06;79.36;98075.12;108042;1273;58996;-70
2021/11/18 03:20:45;;;;;;;48.10;26.50;;;;;;;-4.05;78.85;98078.50;108045;1273;58833;-68
2021/11/18 03:23:16;;;;;;;45.20;26.00;;;;;;;-4.06;78.42;98073.08;107991;1272;69840;-68
2021/11/18 03:25:49;;;;;;;63.80;33.20;;;;;;;-4.08;78.93;98079.37;108012;1275;68545;-69
2021/11/18 03:28:27;;;;;;;72.20;37.20;;;;;;;-4.12;78.90;98080.58;108066;1272;68533;-69
2021/11/18 03:30:59;;;;;;;75.80;38.60;;;;;;;-4.15;79.05;98075.83;107965;1274;59001;-68
2021/11/18 03:33:43;;;;;;;32.00;17.40;;;;;;;-4.17;79.24;98078.21;108003;1275;58992;-69
2021/11/18 03:36:15;;;;;;;78.80;38.30;;;;;;;-4.18;79.45;98081.95;108048;1275;70062;-68
2021/11/18 03:38:47;;;;;;;56.10;35.00;;;;;;;-4.20;79.06;98081.62;108076;1272;67725;-69
2021/11/18 03:41:25;;;;;;;45.60;28.70;;;;;;;-4.22;79.12;98079.41;108074;1273;69243;-70
2021/11/18 03:44:03;;;;;;;52.90;31.50;;;;;;;-4.21;79.18;98076.34;108078;1272;58999;-68
2021/11/18 03:46:43;;;;;;;29.80;20.90;;;;;;;-4.20;79.31;98075.34;108095;1275;58953;-70
2021/11/18 03:49:14;;;;;;;27.60;16.60;;;;;;;-4.18;79.77;98078.56;108037;1272;70693;-71
2021/11/18 03:51:48;;;;;;;42.70;22.30;;;;;;;-4.18;79.24;98077.02;108022;1272;67813;-71
2021/11/18 03:54:21;;;;;;;46.20;26.00;;;;;;;-4.15;78.86;98078.73;108124;1272;69235;-71
2021/11/18 03:56:52;;;;;;;42.10;22.90;;;;;;;-4.14;78.73;98077.87;108005;1272;58926;-70
2021/11/18 03:59:28;;;;;;;43.00;23.80;;;;;;;-4.14;79.06;98079.06;108123;1272;59192;-70
2021/11/18 04:02:00;;;;;;;38.70;26.10;;;;;;;-4.15;79.80;98084.01;107994;1274;70606;-71
2021/11/18 04:04:37;;;;;;;32.90;19.30;;;;;;;-4.16;79.71;98079.23;107992;1269;68144;-71
2021/11/18 04:07:09;;;;;;;34.30;21.70;;;;;;;-4.15;80.26;98080.42;107982;1273;69403;-71
2021/11/18 04:09:41;;;;;;;53.40;27.90;;;;;;;-4.15;80.15;98082.98;108046;1275;58975;-68
2021/11/18 04:12:14;;;;;;;43.80;27.30;;;;;;;-4.16;79.99;98079.92;108100;1272;58868;-68
2021/11/18 04:14:45;;;;;;;66.10;35.00;;;;;;;-4.16;79.75;98078.55;108022;1274;70815;-68
2021/11/18 04:17:16;;;;;;;34.70;24.40;;;;;;;-4.16;79.96;98081.77;108070;1272;68603;-68
2021/11/18 04:19:45;;;;;;;;;;;;;;;-4.16;79.91;98081.79;107989;1272;69449;-69
2021/11/18 04:22:15;;;;;;;51.60;28.30;;;;;;;-4.15;80.13;98078.39;108059;1272;58980;-69
2021/11/18 04:24:47;;;;;;;47.90;26.90;;;;;;;-4.16;79.98;98077.04;108177;1272;58901;-69
2021/11/18 04:27:16;;;;;;;47.80;28.30;;;;;;;-4.15;79.83;98077.20;108064;1274;70734;-69
2021/11/18 04:29:45;;;;;;;53.20;31.20;;;;;;;-4.15;79.68;98078.39;108011;1275;68018;-69
2021/11/18 04:32:17;;;;;;;;;;;;;;;-4.15;80.16;98081.79;108012;1274;68693;-68
2021/11/18 04:34:49;;;;;;;39.10;23.50;;;;;;;-4.14;80.06;98080.77;108024;1272;58916;-68
2021/11/18 04:37:21;;;;;;;70.90;36.90;;;;;;;-4.15;79.81;98087.74;108029;1276;58911;-69
2021/11/18 04:39:50;;;;;;;53.40;28.80;;;;;;;-4.16;79.98;98088.08;107944;1272;69994;-68
2021/11/18 04:42:20;;;;;;;74.40;38.70;;;;;;;-4.18;79.61;98090.30;108021;1275;67925;-69
2021/11/18 04:45:01;;;;;;;88.60;42.90;;;;;;;-4.22;78.49;98087.93;108010;1274;69482;-68
2021/11/18 04:47:31;;;;;;;72.80;38.90;;;;;;;-4.29;78.82;98087.78;108015;1272;58914;-69
2021/11/18 04:50:00;;;;;;;60.20;33.30;;;;;;;-4.33;79.42;98090.69;108059;1275;58897;-68
2021/11/18 04:52:29;;;;;;;53.00;31.10;;;;;;;-4.37;79.26;98090.88;108009;1275;70213;-69
2021/11/18 04:54:58;;;;;;;94.40;47.00;;;;;;;-4.40;79.47;98088.84;108116;1273;68653;-70
2021/11/18 04:57:32;;;;;;;60.00;33.70;;;;;;;-4.44;79.58;98086.30;108149;1272;69470;-68
2021/11/18 05:00:08;;;;;;;64.10;36.90;;;;;;;-4.48;79.39;98089.70;107996;1273;58924;-69
2021/11/18 05:02:38;;;;;;;61.00;34.40;;;;;;;-4.50;79.10;98090.56;108021;1274;58961;-71
2021/11/18 05:05:08;;;;;;;41.60;24.40;;;;;;;-4.51;79.11;98092.95;108036;1275;70793;-70
2021/11/18 05:07:38;;;;;;;60.20;32.60;;;;;;;-4.50;79.28;98095.51;107901;1273;67902;-69
2021/11/18 05:10:15;;;;;;;68.90;37.40;;;;;;;-4.49;79.27;98096.52;108163;1272;68668;-69
2021/11/18 05:12:45;;;;;;;49.80;30.40;;;;;;;-4.45;79.49;98102.46;108023;1274;59298;-69
2021/11/18 05:15:19;;;;;;;70.30;35.30;;;;;;;-4.42;79.73;98108.41;108117;1272;58929;-69
2021/11/18 05:17:49;;;;;;;27.90;15.40;;;;;;;-4.39;80.15;98112.48;107998;1275;69011;-69
2021/11/18 05:20:21;;;;;;;58.70;30.20;;;;;;;-4.36;79.31;98114.85;108111;1272;67801;-70
2021/11/18 05:22:51;;;;;;;58.10;30.80;;;;;;;-4.37;79.31;98118.61;107807;1275;68664;-70
2021/11/18 05:25:24;;;;;;;45.70;24.40;;;;;;;-4.41;78.92;98121.17;107982;1275;58906;-70
2021/11/18 05:27:55;;;;;;;62.10;32.90;;;;;;;-4.46;79.01;98123.73;108141;1272;58858;-70
2021/11/18 05:30:27;;;;;;;59.80;33.90;;;;;;;-4.50;79.52;98128.52;108030;1275;70064;-69
2021/11/18 05:33:00;;;;;;;49.30;29.40;;;;;;;-4.53;79.38;98128.02;108039;1275;68636;-70
2021/11/18 05:35:32;;;;;;;42.50;25.40;;;;;;;-4.54;79.47;98126.29;108026;1274;69159;-70
2021/11/18 05:38:04;;;;;;;30.00;16.80;;;;;;;-4.54;79.91;98128.84;108173;1272;58960;-69
2021/11/18 05:40:36;;;;;;;107.30;51.80;;;;;;;-4.54;80.13;98137.87;108117;1272;58855;-69
2021/11/18 05:43:06;;;;;;;58.80;30.90;;;;;;;-4.54;79.76;98140.41;107784;1275;70819;-69
2021/11/18 05:45:37;;;;;;;46.90;26.10;;;;;;;-4.53;79.74;98145.52;108001;1275;68676;-70
2021/11/18 05:48:16;;;;;;;113.30;57.20;;;;;;;-4.49;79.65;98144.34;107908;1275;69467;-69
2021/11/18 05:50:50;;;;;;;53.10;30.70;;;;;;;-4.44;79.92;98146.36;107984;1275;58967;-70
2021/11/18 05:53:39;;;;;;;37.50;21.40;;;;;;;-4.38;80.07;98146.52;108113;1272;58906;-69
2021/11/18 05:56:12;;;;;;;45.40;28.00;;;;;;;-4.30;80.47;98155.52;107924;1275;70762;-68
2021/11/18 05:58:43;;;;;;;31.80;18.00;;;;;;;-4.24;80.59;98158.91;108019;1272;68625;-68
2021/11/18 06:01:14;;;;;;;56.90;31.50;;;;;;;-4.15;80.43;98159.06;108071;1275;69464;-68
2021/11/18 06:03:44;;;;;;;88.40;41.90;;;;;;;-4.08;80.64;98156.67;107811;1272;58982;-68
2021/11/18 06:06:20;;;;;;;59.20;30.60;;;;;;;-4.00;80.00;98157.32;108178;1272;58853;-68
2021/11/18 06:08:50;;;;;;;78.50;41.40;;;;;;;-3.90;80.23;98155.77;107999;1271;69938;-68
2021/11/18 06:11:20;;;;;;;96.20;48.10;;;;;;;-3.79;79.86;98159.14;108030;1275;67672;-68
2021/11/18 06:13:51;;;;;;;58.70;32.50;;;;;;;-3.68;79.34;98162.15;108159;1275;68112;-68
2021/11/18 06:16:24;;;;;;;69.50;37.80;;;;;;;-3.55;79.23;98163.45;107217;1276;931234;-68
2021/11/18 06:18:58;;;;;;;75.50;39.40;;;;;;;-3.41;78.99;98164.25;107887;1274;58979;-68
2021/11/18 06:21:31;;;;;;;95.00;49.30;;;;;;;-3.27;78.80;98172.01;108050;1275;70596;-68
2021/11/18 06:24:01;;;;;;;48.50;28.00;;;;;;;-3.13;78.35;98170.38;108111;1272;67761;-67
2021/11/18 06:26:31;;;;;;;93.80;48.10;;;;;;;-2.95;78.35;98177.42;107858;1274;69755;-68
2021/11/18 06:29:00;;;;;;;88.70;47.50;;;;;;;-2.82;77.35;98179.73;107853;1273;58971;-69
2021/11/18 06:31:30;;;;;;;84.50;43.20;;;;;;;-2.77;77.10;98182.25;108005;1272;58918;-68
2021/11/18 06:34:00;;;;;;;70.90;38.80;;;;;;;-2.74;77.18;98187.69;107814;1272;70091;-68
2021/11/18 06:36:28;;;;;;;69.90;38.70;;;;;;;-2.64;77.25;98189.48;108060;1272;68604;-69
2021/11/18 06:38:57;;;;;;;62.70;31.80;;;;;;;-2.48;77.01;98189.02;107986;1275;70200;-69
2021/11/18 06:41:32;;;;;;;71.70;37.40;;;;;;;-2.28;76.08;98185.75;108022;1273;58917;-68
2021/11/18 06:44:01;;;;;;;93.60;46.80;;;;;;;-1.99;75.68;98187.86;108060;1272;58918;-68
2021/11/18 06:46:31;;;;;;;141.50;72.60;;;;;;;-1.59;74.85;98184.01;108006;1272;70015;-68
2021/11/18 06:49:01;;;;;;;159.40;78.70;;;;;;;-1.20;74.40;98186.92;107903;1274;69296;-68
2021/11/18 06:51:30;;;;;;;105.00;55.10;;;;;;;-0.82;73.14;98189.98;107971;1275;69570;-67
2021/11/18 06:54:00;;;;;;;145.30;75.90;;;;;;;-0.44;72.00;98187.52;108015;1272;58939;-66
2021/11/18 06:56:33;;;;;;;198.50;94.20;;;;;;;-0.23;71.27;98192.80;107996;1272;58923;-68
2021/11/18 06:59:03;;;;;;;158.30;84.00;;;;;;;-0.41;70.73;98189.16;107988;1275;71325;-68
2021/11/18 07:01:37;;;;;;;148.20;75.70;;;;;;;-0.56;70.86;98188.54;108043;1272;67900;-66
2021/11/18 07:04:07;;;;;;;163.30;83.30;;;;;;;-0.67;71.36;98190.77;108056;1273;69464;-68
2021/11/18 07:06:39;;;;;;;148.20;72.80;;;;;;;-0.77;71.25;98189.05;108021;1272;58958;-69
2021/11/18 07:09:11;;;;;;;159.30;79.70;;;;;;;-0.83;71.51;98190.17;107933;1272;58876;-69
2021/11/18 07:11:57;;;;;;;142.20;75.00;;;;;;;-0.89;71.58;98193.83;107995;1275;70055;-69
2021/11/18 07:14:26;;;;;;;143.40;74.00;;;;;;;-0.77;71.77;98198.46;107940;1275;68746;-67
2021/11/18 07:16:56;;;;;;;142.40;71.70;;;;;;;-0.29;71.62;98197.34;107986;1275;69418;-66
2021/11/18 07:19:25;;;;;;;145.00;74.00;;;;;;;0.35;70.82;98200.98;107831;1272;58948;-67
2021/11/18 07:21:56;;;;;;;95.30;48.90;;;;;;;1.05;69.30;98202.46;108033;1272;59220;-69
2021/11/18 07:24:36;;;;;;;;;;;;;;;1.80;67.92;98203.95;108059;1272;70749;-66
2021/11/18 07:27:07;;;;;;;127.00;65.10;;;;;;;2.42;66.98;98206.96;107993;1275;68213;-66
2021/11/18 07:29:37;;;;;;;114.90;60.40;;;;;;;3.05;65.11;98206.55;108017;1272;68575;-67
2021/11/18 07:32:06;;;;;;;81.70;50.00;;;;;;;3.56;61.45;98200.98;107965;1275;58913;-66
2021/11/18 07:34:35;;;;;;;94.00;51.90;;;;;;;4.05;60.73;98201.61;108014;1273;58913;-66
2021/11/18 07:37:15;;;;;;;69.60;40.70;;;;;;;4.55;58.82;98204.19;107989;1274;70033;-67
2021/11/18 07:39:44;;;;;;;77.00;44.10;;;;;;;5.17;59.27;98199.27;107914;1272;68745;-67
2021/11/18 07:42:13;;;;;;;70.80;42.10;;;;;;;5.92;58.39;98201.69;107903;1275;68871;-68
2021/11/18 07:45:01;;;;;;;70.50;43.70;;;;;;;6.83;56.96;98202.41;108016;1272;59009;-67
2021/11/18 07:48:06;;;;;;;70.10;43.60;;;;;;;7.76;55.01;98202.73;107625;1276;58980;-68
2021/11/18 07:50:38;;;;;;;80.30;47.20;;;;;;;8.45;51.63;98205.70;108038;1273;69998;-67
2021/11/18 07:53:07;;;;;;;73.70;45.40;;;;;;;8.90;50.08;98201.29;108035;1275;68764;-68
2021/11/18 07:55:36;;;;;;;65.90;42.30;;;;;;;9.31;49.46;98196.45;107935;1275;69526;-67
2021/11/18 07:58:05;;;;;;;61.30;39.70;;;;;;;9.33;49.06;98195.31;107955;1275;58944;-67
2021/11/18 08:00:35;;;;;;;57.90;38.20;;;;;;;8.86;50.04;98194.21;108000;1272;58961;-67
2021/11/18 08:03:16;;;;;;;61.90;39.40;;;;;;;8.37;50.33;98193.80;108013;1274;69948;-67
2021/11/18 08:06:14;;;;;;;57.70;37.50;;;;;;;7.93;49.65;98196.70;107946;1272;68953;-68
2021/11/18 08:08:47;;;;;;;70.50;45.70;;;;;;;7.58;50.87;98194.23;107875;1273;68735;-67
2021/11/18 08:11:35;;;;;;;62.10;39.80;;;;;;;7.24;51.24;98194.14;108011;1272;58979;-67
2021/11/18 08:14:06;;;;;;;68.10;42.30;;;;;;;7.35;51.05;98198.12;108082;1276;58926;-68
2021/11/18 08:16:36;;;;;;;47.90;30.30;;;;;;;7.83;50.99;98203.62;107835;1276;70081;-67
2021/11/18 08:19:07;;;;;;;79.60;49.20;;;;;;;8.62;50.08;98203.26;108027;1272;68441;-67
2021/11/18 08:21:38;;;;;;;80.60;51.90;;;;;;;9.20;47.54;98206.07;108009;1272;69386;-67
2021/11/18 08:24:09;;;;;;;83.60;54.40;;;;;;;9.52;46.19;98204.16;107936;1276;58882;-68
2021/11/18 08:26:40;;;;;;;83.20;53.20;;;;;;;10.16;45.82;98209.73;107989;1274;58939;-67
2021/11/18 08:29:19;;;;;;;82.30;54.10;;;;;;;10.93;44.31;98215.23;107830;1271;70263;-66
2021/11/18 08:31:49;;;;;;;78.40;52.60;;;;;;;11.30;43.24;98209.45;107748;1275;68593;-68
2021/11/18 08:34:21;;;;;;;75.80;50.00;;;;;;;10.93;42.37;98213.50;108002;1272;69482;-67
2021/11/18 08:36:50;;;;;;;62.80;41.60;;;;;;;9.79;44.92;98213.74;108005;1271;58903;-68
2021/11/18 08:39:22;;;;;;;62.40;43.60;;;;;;;8.97;46.84;98217.60;107993;1274;58914;-68
2021/11/18 08:42:01;;;;;;;65.40;43.50;;;;;;;8.21;48.49;98221.52;108042;1272;70812;-68
2021/11/18 08:44:37;;;;;;;67.90;42.70;;;;;;;7.27;50.66;98219.48;107972;1275;68495;-68
2021/11/18 08:47:09;;;;;;;73.40;45.40;;;;;;;6.72;52.10;98220.73;107975;1275;69372;-67
2021/11/18 08:49:38;;;;;;;73.90;49.60;;;;;;;6.21;53.54;98220.17;108020;1272;58919;-69
2021/11/18 08:52:10;;;;;;;80.90;50.90;;;;;;;5.75;55.10;98210.84;108004;1274;58996;-68
2021/11/18 08:54:48;;;;;;;84.30;49.00;;;;;;;5.12;57.07;98210.35;108041;1272;69987;-68
2021/11/18 08:57:21;;;;;;;77.90;48.20;;;;;;;4.83;58.42;98213.00;108056;1272;68109;-68
2021/11/18 09:00:13;;;;;;;69.40;42.20;;;;;;;4.49;59.92;98211.83;107978;1275;68938;-68
2021/11/18 09:02:54;;;;;;;73.00;45.00;;;;;;;4.31;60.76;98213.13;108003;1272;58856;-68
2021/11/18 09:05:30;;;;;;;66.20;41.60;;;;;;;4.15;61.62;98212.67;108012;1275;58968;-68
2021/11/18 09:08:00;;;;;;;77.00;45.80;;;;;;;4.08;62.02;98213.23;108040;1271;69789;-68
2021/11/18 09:10:33;;;;;;;79.20;48.20;;;;;;;3.97;62.91;98213.80;107807;1275;68159;-68
2021/11/18 09:13:04;;;;;;;73.40;46.10;;;;;;;3.90;63.52;98208.53;107933;1272;68505;-68
2021/11/18 09:15:35;;;;;;;77.50;47.10;;;;;;;3.82;64.23;98210.52;107992;1272;58958;-69
2021/11/18 09:18:06;;;;;;;70.20;40.70;;;;;;;3.75;64.74;98209.19;108049;1274;58977;-69
2021/11/18 09:20:55;;;;;;;68.70;40.80;;;;;;;3.79;64.91;98209.89;107833;1275;70796;-69
2021/11/18 09:23:29;;;;;;;56.00;32.40;;;;;;;3.98;64.68;98210.31;108046;1272;68794;-68
2021/11/18 09:26:02;;;;;;;71.70;42.30;;;;;;;4.16;64.57;98206.59;108012;1275;70130;-69
2021/11/18 09:28:32;;;;;;;68.40;41.50;;;;;;;4.28;63.81;98203.41;107858;1275;58968;-68
2021/11/18 09:31:12;;;;;;;56.60;33.20;;;;;;;4.20;64.22;98197.49;107924;1271;59326;-69
2021/11/18 09:33:45;;;;;;;71.90;44.30;;;;;;;4.25;64.34;98204.36;107979;1274;70087;-69
2021/11/18 09:36:18;;;;;;;65.10;38.20;;;;;;;4.19;64.46;98202.55;107999;1272;67833;-68
2021/11/18 09:38:50;;;;;;;41.90;25.40;;;;;;;4.20;64.46;98210.09;107935;1272;67813;-68
2021/11/18 09:41:25;;;;;;;50.70;31.10;;;;;;;4.31;64.81;98208.64;108000;1273;58966;-68
2021/11/18 09:44:13;;;;;;;43.60;25.50;;;;;;;4.42;64.62;98208.95;107930;1275;58964;-68
2021/11/18 09:47:09;;;;;;;38.40;24.70;;;;;;;4.55;64.86;98212.11;107940;1272;70737;-68
2021/11/18 09:50:02;;;;;;;62.20;36.70;;;;;;;4.63;64.10;98214.09;107977;1272;68636;-69
2021/11/18 09:53:06;;;;;;;41.80;23.60;;;;;;;4.61;64.05;98220.37;108054;1272;68763;-68
2021/11/18 09:56:10;;;;;;;81.30;47.50;;;;;;;4.58;64.19;98219.27;108053;1271;58976;-67
2021/11/18 09:58:52;;;;;;;82.20;52.30;;;;;;;4.27;63.84;98214.33;107902;1274;58914;-69
2021/11/18 10:01:56;;;;;;;94.20;52.60;;;;;;;4.05;64.39;98215.58;107977;1272;70208;-68
2021/11/18 10:04:53;;;;;;;70.60;42.00;;;;;;;3.73;65.71;98211.64;108069;1272;68625;-69
2021/11/18 10:07:34;;;;;;;72.40;43.70;;;;;;;3.62;65.91;98204.09;108009;1271;69254;-70
2021/11/18 10:10:19;;;;;;;81.80;51.20;;;;;;;3.50;66.02;98202.04;107999;1275;58974;-70
2021/11/18 10:12:56;;;;;;;84.30;51.00;;;;;;;3.39;66.11;98206.34;107945;1275;58917;-69
2021/11/18 10:15:36;;;;;;;90.40;53.30;;;;;;;3.26;66.99;98204.69;108000;1275;70785;-70
2021/11/18 10:18:31;;;;;;;77.00;47.10;;;;;;;3.29;66.42;98194.10;107985;1273;68517;-69
2021/11/18 10:21:30;;;;;;;73.30;44.30;;;;;;;3.31;67.44;98189.56;107850;1274;68646;-69
2021/11/18 10:24:09;;;;;;;89.00;52.80;;;;;;;3.48;67.17;98187.98;107816;1275;58939;-68
2021/11/18 10:26:46;;;;;;;77.60;46.70;;;;;;;3.66;66.45;98187.06;107965;1272;58860;-69
2021/11/18 10:29:32;;;;;;;90.00;56.70;;;;;;;3.83;65.67;98189.10;107944;1272;70774;-68
2021/11/18 10:32:04;;;;;;;90.80;53.80;;;;;;;3.92;65.59;98186.02;107959;1272;67385;-68
2021/11/18 10:34:56;;;;;;;89.60;54.80;;;;;;;3.95;65.21;98186.95;107985;1271;69831;-70
2021/11/18 10:37:33;;;;;;;88.40;51.50;;;;;;;3.79;65.49;98186.63;107979;1271;58890;-69
2021/11/18 10:40:25;;;;;;;87.80;52.60;;;;;;;3.67;65.89;98182.73;107992;1271;58983;-67
2021/11/18 10:43:03;;;;;;;90.00;52.40;;;;;;;3.58;66.08;98178.02;108004;1272;70766;-69
2021/11/18 10:45:49;;;;;;;82.90;51.20;;;;;;;3.58;66.10;98176.45;108016;1272;68661;-70
2021/11/18 10:48:23;;;;;;;70.10;40.60;;;;;;;3.59;66.43;98172.81;108024;1271;69516;-68
2021/11/18 10:51:00;;;;;;;85.00;54.20;;;;;;;3.67;66.05;98173.58;107965;1276;58901;-70
2021/11/18 10:53:43;;;;;;;82.60;50.90;;;;;;;3.69;65.98;98181.30;107985;1275;58971;-69
2021/11/18 10:56:20;;;;;;;72.70;43.60;;;;;;;3.57;66.36;98179.58;108007;1271;70761;-69
2021/11/18 10:59:04;;;;;;;63.30;37.10;;;;;;;3.55;66.84;98174.50;108003;1272;68709;-69
2021/11/18 11:01:38;;;;;;;83.40;50.10;;;;;;;3.62;66.31;98174.98;107980;1274;68661;-68
2021/11/18 11:04:10;;;;;;;72.90;44.60;;;;;;;3.64;66.53;98174.70;107964;1274;58967;-69
2021/11/18 11:06:43;;;;;;;74.30;45.60;;;;;;;3.68;66.32;98174.05;107837;1275;58999;-70
2021/11/18 11:09:16;;;;;;;73.50;42.20;;;;;;;3.77;66.14;98174.63;107990;1274;69368;-69
2021/11/18 11:12:08;;;;;;;65.50;40.10;;;;;;;3.85;66.09;98170.73;107902;1275;68783;-69
2021/11/18 11:15:02;;;;;;;56.00;33.60;;;;;;;3.93;65.92;98172.35;107998;1272;70008;-70
2021/11/18 11:17:56;;;;;;;66.50;40.60;;;;;;;3.99;65.80;98169.05;108005;1272;58914;-69
2021/11/18 11:20:52;;;;;;;61.90;35.70;;;;;;;4.02;65.96;98165.49;108011;1271;58914;-68
2021/11/18 11:23:47;;;;;;;78.70;46.90;;;;;;;4.04;65.88;98162.13;108042;1272;69927;-70
2021/11/18 11:26:50;;;;;;;82.60;49.70;;;;;;;4.04;65.94;98161.27;108031;1272;68433;-70
2021/11/18 11:29:27;;;;;;;83.70;50.30;;;;;;;4.00;66.43;98154.52;107995;1274;69555;-68
2021/11/18 11:32:11;;;;;;;79.80;49.00;;;;;;;3.96;66.34;98151.05;107922;1272;58863;-69
2021/11/18 11:35:00;;;;;;;81.70;49.90;;;;;;;3.95;66.54;98151.92;108022;1274;58867;-67
2021/11/18 11:38:02;;;;;;;83.70;47.00;;;;;;;3.94;66.65;98153.88;108012;1272;70776;-68
2021/11/18 11:41:09;;;;;;;73.50;40.70;;;;;;;3.92;67.02;98150.15;107921;1274;68770;-68
2021/11/18 11:43:53;;;;;;;71.80;41.30;;;;;;;3.90;66.76;98146.42;107981;1275;69825;-68
2021/11/18 11:46:47;;;;;;;65.70;38.10;;;;;;;3.89;66.94;98142.14;107902;1272;58903;-69
2021/11/18 11:49:30;;;;;;;56.00;32.80;;;;;;;3.93;67.06;98142.68;107877;1275;58977;-69
2021/11/18 11:52:57;;;;;;;61.50;38.10;;;;;;;3.99;67.32;98142.14;107972;1274;70010;-69